KACB/ACB METAR and TAF weather

Enter ICAO airport designator
Station Type Date Time Source
KACB METAR 2024/04/18 06:35 UTC NOAA

KACB 180635Z AUTO 28004KT 10SM OVC005 07/06 A2981 RMK AO2 T00710058


Station Type Date Time Source
KACB Decoded METAR 2024/04/18 06:35 UTC NOAA

Bellaire, Antrim County Airport, MI, United States (KACB) 44-59-18N 085-11-54W
Apr 18, 2024 - 02:35 AM EDT / 2024.04.18 0635 UTC
Wind: from the W (280 degrees) at 5 MPH (4 KT):0
Visibility: 10 mile(s):0
Sky conditions: overcast
Temperature: 44.8 F (7.1 C)
Dew Point: 42.4 F (5.8 C)
Relative Humidity: 91%
Pressure (altimeter): 29.81 in. Hg (1009 hPa)
ob: KACB 180635Z AUTO 28004KT 10SM OVC005 07/06 A2981 RMK AO2 T00710058
cycle: 6

Station Type Date Time Source
KACB TAF UTC NOAA

Error!

Example: see airport list